createdAt,value
2019-06-01T00:43:22.720Z,76.37
2019-06-01T00:49:29.045Z,75.74
2019-06-01T01:22:38.578Z,75.71
2019-06-01T04:08:27.898Z,80.50
2019-06-01T04:11:01.622Z,80.49
2019-06-01T04:13:35.567Z,80.49
2019-06-01T04:16:09.993Z,80.58
2019-06-01T04:18:44.113Z,80.53
2019-06-01T04:21:17.665Z,80.85
2019-06-01T04:23:51.133Z,81.13
2019-06-01T04:26:24.633Z,80.96
2019-06-01T04:28:58.176Z,80.85
2019-06-01T04:31:31.690Z,80.75
2019-06-01T04:34:05.303Z,80.46
2019-06-01T04:36:38.988Z,80.35
2019-06-01T04:39:13.764Z,80.47
2019-06-01T04:41:48.966Z,80.75
2019-06-01T04:57:13.038Z,80.50
2019-06-01T05:06:02.424Z,81.26
2019-06-01T05:08:45.552Z,81.28
2019-06-01T05:11:22.005Z,81.46
2019-06-01T05:14:23.954Z,81.48
2019-06-01T05:17:01.222Z,81.41
2019-06-01T05:19:35.785Z,81.45
2019-06-01T05:35:22.008Z,81.53
2019-06-01T05:37:55.336Z,81.40
2019-06-01T05:40:28.924Z,81.74
2019-06-01T05:43:02.358Z,81.28
2019-06-01T05:45:35.928Z,81.60
2019-06-01T05:48:12.046Z,81.49
2019-06-01T05:50:44.614Z,81.09
2019-06-01T05:53:19.863Z,80.94
2019-06-01T05:55:53.653Z,80.26
2019-06-01T05:58:29.279Z,80.16
2019-06-01T06:01:02.641Z,79.73
2019-06-01T06:03:40.226Z,78.98
2019-06-01T06:06:12.214Z,77.37
2019-06-01T06:08:46.097Z,78.21
2019-06-01T06:11:20.951Z,77.89
2019-06-01T06:13:55.066Z,77.95
2019-06-01T06:16:28.979Z,77.82
2019-06-01T06:19:02.864Z,77.69
2019-06-01T06:21:36.473Z,77.67
2019-06-01T06:24:10.163Z,77.37
2019-06-01T06:26:43.930Z,77.94
2019-06-01T06:29:18.948Z,77.74
2019-06-01T06:31:52.759Z,76.58
2019-06-01T06:34:26.513Z,75.47
2019-06-01T06:37:00.328Z,74.77
2019-06-01T06:39:40.640Z,74.99
2019-06-01T06:42:18.608Z,74.46
2019-06-01T06:44:58.178Z,73.93
2019-06-01T06:47:32.705Z,73.51
2019-06-01T06:50:06.900Z,72.32
2019-06-01T06:52:40.606Z,71.91
2019-06-01T06:55:15.649Z,70.14
2019-06-01T06:57:50.029Z,69.51
2019-06-01T07:11:59.504Z,65.26
2019-06-01T07:14:21.550Z,64.41
2019-06-01T07:17:31.806Z,62.36
2019-06-01T07:20:07.156Z,61.83
2019-06-01T07:22:46.073Z,61.53
2019-06-01T07:25:22.649Z,60.15
2019-06-01T07:27:59.222Z,59.80
2019-06-01T07:30:49.603Z,60.44
2019-06-01T07:33:17.841Z,59.00
2019-06-01T07:35:56.679Z,58.10
2019-06-01T07:38:33.982Z,59.18
2019-06-01T07:41:10.655Z,58.90
2019-06-01T07:43:44.800Z,58.60
2019-06-01T07:46:18.483Z,58.06
2019-06-01T07:48:52.094Z,58.47
2019-06-01T07:51:27.382Z,57.72
2019-06-01T07:54:00.932Z,55.81
2019-06-01T07:56:34.465Z,56.23
2019-06-01T07:59:08.440Z,55.55
2019-06-01T08:01:42.005Z,56.43
2019-06-01T08:04:15.875Z,55.39
2019-06-01T08:06:50.302Z,56.05
2019-06-01T08:09:24.591Z,55.01
2019-06-01T08:12:01.507Z,55.62
2019-06-01T08:14:35.063Z,53.87
2019-06-01T08:17:08.666Z,53.88
2019-06-01T08:19:42.118Z,53.48
2019-06-01T08:22:15.489Z,53.74
2019-06-01T08:24:48.774Z,54.55
2019-06-01T08:27:22.529Z,54.23
2019-06-01T08:30:03.570Z,52.45
2019-06-01T08:32:38.969Z,52.71
2019-06-01T08:35:13.767Z,53.19
2019-06-01T08:38:23.383Z,52.09
2019-06-01T08:44:10.018Z,52.24
2019-06-01T08:46:43.675Z,51.96
2019-06-01T09:05:53.553Z,50.04
2019-06-01T09:08:27.186Z,48.80
2019-06-01T09:11:00.695Z,49.00
2019-06-01T09:13:35.522Z,48.50
2019-06-01T09:16:09.359Z,48.19
2019-06-01T09:18:42.885Z,47.64
2019-06-01T09:21:18.289Z,48.34
2019-06-01T09:23:52.282Z,49.15
2019-06-01T09:26:26.300Z,48.52
2019-06-01T09:29:00.381Z,47.90
2019-06-01T09:31:34.394Z,48.43
2019-06-01T09:34:08.028Z,48.82
2019-06-01T09:36:41.621Z,48.52
2019-06-01T09:39:15.193Z,47.65
2019-06-01T09:41:49.780Z,46.64
2019-06-01T09:44:23.925Z,46.27
2019-06-01T09:46:59.522Z,46.71
2019-06-01T09:49:34.110Z,47.18
2019-06-01T09:52:12.038Z,47.77
2019-06-01T09:54:43.494Z,48.47
2019-06-01T09:57:17.079Z,47.96
2019-06-01T10:04:39.351Z,48.60
2019-06-01T10:07:13.196Z,47.33
2019-06-01T10:09:46.753Z,47.46
2019-06-01T10:12:20.721Z,48.18
2019-06-01T10:14:55.282Z,48.13
2019-06-01T10:17:30.451Z,48.60
2019-06-01T10:20:05.629Z,48.91
2019-06-01T10:22:39.545Z,49.73
2019-06-01T10:25:13.374Z,49.84
2019-06-01T10:27:46.905Z,49.54
2019-06-01T10:30:20.467Z,48.57
2019-06-01T10:32:54.367Z,49.36
2019-06-01T10:35:27.577Z,47.78
2019-06-01T10:38:00.797Z,49.02
2019-06-01T10:40:35.352Z,48.90
2019-06-01T10:43:09.201Z,49.28
2019-06-01T10:45:42.363Z,49.12
2019-06-01T10:48:16.616Z,50.29
2019-06-01T10:50:50.101Z,50.16
2019-06-01T10:53:23.337Z,50.54
2019-06-01T10:55:56.650Z,50.36
2019-06-01T10:58:29.884Z,51.02
2019-06-01T11:01:03.361Z,50.72
2019-06-01T11:03:36.809Z,51.31
2019-06-01T11:06:10.296Z,51.63
2019-06-01T11:08:43.955Z,52.12
2019-06-01T11:11:18.531Z,51.93
2019-06-01T11:13:59.126Z,52.03
2019-06-01T11:16:41.027Z,51.90
2019-06-01T11:19:17.926Z,51.69
2019-06-01T11:21:54.449Z,51.54
2019-06-01T11:24:35.824Z,52.88
2019-06-01T11:27:10.636Z,49.54
2019-06-01T11:29:51.277Z,49.37
2019-06-01T11:32:19.535Z,47.76
2019-06-01T11:34:53.188Z,46.21
2019-06-01T11:37:26.324Z,46.61
2019-06-01T11:39:59.606Z,47.03
2019-06-01T11:42:39.221Z,46.49
2019-06-01T11:45:13.035Z,47.74
2019-06-01T11:47:46.945Z,47.41
2019-06-01T11:50:20.368Z,46.26
2019-06-01T11:52:53.670Z,47.36
2019-06-01T11:55:27.036Z,46.21
2019-06-01T11:58:00.388Z,45.24
2019-06-01T12:00:33.636Z,44.87
2019-06-01T12:03:06.964Z,45.56
2019-06-01T12:05:40.173Z,45.37
2019-06-01T12:08:13.392Z,43.73
2019-06-01T12:10:51.064Z,43.90
2019-06-01T12:13:24.322Z,43.96
2019-06-01T12:15:57.510Z,44.72
2019-06-01T12:18:30.712Z,45.33
2019-06-01T12:21:03.959Z,45.87
2019-06-01T12:23:37.407Z,44.83
2019-06-01T12:26:10.572Z,43.37
2019-06-01T12:28:44.102Z,42.54
2019-06-01T12:31:18.263Z,43.14
2019-06-01T12:33:53.167Z,43.68
2019-06-01T12:36:26.601Z,43.78
2019-06-01T12:38:59.898Z,43.73
2019-06-01T12:41:33.374Z,44.03
2019-06-01T12:44:14.256Z,42.84
2019-06-01T12:46:48.997Z,42.38
2019-06-01T12:49:22.635Z,43.25
2019-06-01T12:51:57.130Z,43.21
2019-06-01T12:54:31.590Z,42.95
2019-06-01T12:57:05.811Z,42.85
2019-06-01T12:59:41.055Z,43.01
2019-06-01T13:02:15.553Z,42.76
2019-06-01T13:04:49.206Z,41.21
2019-06-01T13:07:22.698Z,41.25
2019-06-01T13:09:56.197Z,39.79
2019-06-01T13:12:29.396Z,41.59
2019-06-01T13:15:02.527Z,40.01
2019-06-01T13:17:36.823Z,41.77
2019-06-01T13:20:10.438Z,40.45
2019-06-01T13:22:43.623Z,39.83
2019-06-01T13:25:17.063Z,39.24
2019-06-01T13:27:50.736Z,40.64
2019-06-01T13:30:23.864Z,40.14
2019-06-01T13:32:57.037Z,41.27
2019-06-01T13:35:30.103Z,40.55
2019-06-01T13:38:11.533Z,40.81
2019-06-01T13:40:37.964Z,40.98
2019-06-01T13:43:10.996Z,40.41
2019-06-01T13:45:45.226Z,40.93
2019-06-01T13:48:18.556Z,40.43
2019-06-01T13:50:52.038Z,40.54
2019-06-01T13:53:25.215Z,40.02
2019-06-01T13:55:58.237Z,40.63
2019-06-01T13:58:31.420Z,40.06
2019-06-01T14:01:04.578Z,40.19
2019-06-01T14:03:38.766Z,40.10
2019-06-01T14:06:11.881Z,39.22
2019-06-01T14:08:45.067Z,40.29
2019-06-01T14:11:18.110Z,40.86
2019-06-01T14:13:52.064Z,39.90
2019-06-01T14:16:25.386Z,40.43
2019-06-01T14:18:58.471Z,40.60
2019-06-01T14:21:31.607Z,40.59
2019-06-01T14:24:04.712Z,38.75
2019-06-01T14:26:37.781Z,38.94
2019-06-01T14:29:10.926Z,39.31
2019-06-01T14:31:44.721Z,39.27
2019-06-01T14:34:17.838Z,39.08
2019-06-01T14:36:50.950Z,38.97
2019-06-01T14:39:24.330Z,39.08
2019-06-01T14:41:57.715Z,38.95
2019-06-01T14:44:30.925Z,37.87
2019-06-01T14:47:06.156Z,37.74
2019-06-01T14:49:38.841Z,38.15
2019-06-01T14:52:11.941Z,36.71
2019-06-01T14:54:45.055Z,36.50
2019-06-01T14:57:18.152Z,35.17
2019-06-01T14:59:51.955Z,36.19
2019-06-01T15:02:25.259Z,36.01
2019-06-01T15:04:58.700Z,37.04
2019-06-01T15:07:31.873Z,36.86
2019-06-01T15:10:06.171Z,36.32
2019-06-01T15:12:39.433Z,36.80
2019-06-01T15:15:12.717Z,36.86
2019-06-01T15:17:45.838Z,36.35
2019-06-01T15:20:19.145Z,36.10
2019-06-01T15:22:52.677Z,36.66
2019-06-01T15:25:26.969Z,36.38
2019-06-01T15:28:00.067Z,36.71
2019-06-01T15:30:33.251Z,36.39
2019-06-01T15:33:06.483Z,36.89
2019-06-01T15:35:39.843Z,36.52
2019-06-01T15:38:12.898Z,36.54
2019-06-01T15:40:46.010Z,37.44
2019-06-01T15:43:19.711Z,37.33
2019-06-01T15:45:55.277Z,36.69
2019-06-01T15:48:28.533Z,37.08
2019-06-01T15:51:07.003Z,37.20
2019-06-01T15:53:36.419Z,35.36
2019-06-01T15:56:09.521Z,35.76
2019-06-01T15:58:52.483Z,36.07
2019-06-01T16:01:17.447Z,36.57
2019-06-01T16:03:50.731Z,36.22
2019-06-01T16:06:24.037Z,35.84
2019-06-01T16:08:57.349Z,36.87
2019-06-01T16:11:30.427Z,36.38
2019-06-01T16:14:03.982Z,37.17
2019-06-01T16:16:37.291Z,37.54
2019-06-01T16:19:10.434Z,37.89
2019-06-01T16:21:43.609Z,37.96
2019-06-01T16:24:16.725Z,38.02
2019-06-01T16:26:49.839Z,37.61
2019-06-01T16:29:22.948Z,37.78
2019-06-01T16:31:56.643Z,37.60
2019-06-01T16:34:30.963Z,38.04
2019-06-01T16:37:05.232Z,37.92
2019-06-01T16:39:38.550Z,37.88
2019-06-01T16:42:11.657Z,37.91
2019-06-01T16:44:45.759Z,38.27
2019-06-01T16:47:18.808Z,38.22
2019-06-01T16:49:51.918Z,38.85
2019-06-01T16:52:25.352Z,38.87
2019-06-01T16:54:58.549Z,39.33
2019-06-01T16:57:31.584Z,39.50
2019-06-01T17:00:04.981Z,39.42
2019-06-01T17:02:38.377Z,39.63
2019-06-01T17:05:14.310Z,39.76
2019-06-01T17:07:47.406Z,39.81
2019-06-01T17:10:26.147Z,40.22
2019-06-01T17:12:56.830Z,40.52
2019-06-01T17:15:30.170Z,40.66
2019-06-01T17:18:06.569Z,40.99
2019-06-01T17:20:48.775Z,41.18
2019-06-01T17:23:27.851Z,41.23
2019-06-01T17:25:58.276Z,41.41
2019-06-01T17:28:31.593Z,41.68
2019-06-01T17:31:06.883Z,42.00
2019-06-01T17:33:40.674Z,42.06
2019-06-01T17:36:13.855Z,42.42
2019-06-01T17:38:46.986Z,42.65
2019-06-01T17:41:20.030Z,43.01
2019-06-01T17:43:53.199Z,43.45
2019-06-01T17:46:26.388Z,44.28
2019-06-01T17:49:00.004Z,44.50
2019-06-01T17:51:33.170Z,45.13
2019-06-01T17:54:07.072Z,45.44
2019-06-01T17:56:41.093Z,45.59
2019-06-01T17:59:14.249Z,45.95
2019-06-01T18:01:47.471Z,46.30
2019-06-01T18:04:20.682Z,46.77
2019-06-01T18:06:54.850Z,47.17
2019-06-01T18:09:27.895Z,48.16
2019-06-01T18:12:01.955Z,48.55
2019-06-01T18:14:35.464Z,49.03
2019-06-01T18:17:08.589Z,49.51
2019-06-01T18:19:41.701Z,49.85
2019-06-01T18:22:16.644Z,50.49
2019-06-01T18:24:53.200Z,51.85
2019-06-01T18:27:30.477Z,51.92
2019-06-01T18:30:08.728Z,51.88
2019-06-01T18:32:45.704Z,52.17
2019-06-01T18:35:22.854Z,52.74
2019-06-01T18:38:00.051Z,52.74
2019-06-01T18:40:37.844Z,52.48
2019-06-01T18:43:19.310Z,53.18
2019-06-01T18:45:56.285Z,53.33
2019-06-01T18:48:31.843Z,53.45
2019-06-01T18:51:08.359Z,54.26
2019-06-01T18:53:44.774Z,54.21
2019-06-01T18:56:21.322Z,54.05
2019-06-01T18:58:54.872Z,53.83
2019-06-01T19:01:27.975Z,53.99
2019-06-01T19:04:00.999Z,53.99
2019-06-01T19:06:34.234Z,54.62
2019-06-01T19:09:09.894Z,55.17
2019-06-01T19:11:43.074Z,55.03
2019-06-01T19:14:16.186Z,55.35
2019-06-01T19:16:49.297Z,55.65
2019-06-01T19:19:22.359Z,55.62
2019-06-01T19:21:55.396Z,55.75
2019-06-01T19:24:28.448Z,55.97
2019-06-01T19:27:01.634Z,56.05
2019-06-01T19:29:34.817Z,56.12
2019-06-01T19:32:08.796Z,56.28
2019-06-01T19:34:42.146Z,56.19
2019-06-01T19:37:15.328Z,56.13
2019-06-01T19:39:49.155Z,56.39
2019-06-01T19:42:22.373Z,56.45
2019-06-01T19:44:55.565Z,56.93
2019-06-01T19:47:29.972Z,57.08
2019-06-01T19:50:03.164Z,57.36
2019-06-01T19:52:36.361Z,57.71
2019-06-01T19:55:10.724Z,57.99
2019-06-01T19:58:33.957Z,58.38
2019-06-01T20:01:10.131Z,58.33
2019-06-01T20:03:43.382Z,58.64
2019-06-01T20:06:17.049Z,59.33
2019-06-01T20:08:50.264Z,60.09
2019-06-01T20:11:23.441Z,60.37
2019-06-01T20:13:56.558Z,60.29
2019-06-01T20:16:29.767Z,60.47
2019-06-01T20:19:03.023Z,60.36
2019-06-01T20:21:36.218Z,60.52
2019-06-01T20:24:09.376Z,60.65
2019-06-01T20:26:48.934Z,60.65
2019-06-01T20:29:17.664Z,61.05
2019-06-01T20:31:50.931Z,61.31
2019-06-01T20:34:24.108Z,61.38
2019-06-01T20:36:57.286Z,61.66
2019-06-01T20:39:30.464Z,61.83
2019-06-01T20:42:20.214Z,62.21
2019-06-01T20:44:38.369Z,62.74
2019-06-01T20:47:12.509Z,62.64
2019-06-01T20:49:45.800Z,62.84
2019-06-01T20:52:19.093Z,63.15
2019-06-01T20:54:52.328Z,63.49
2019-06-01T20:57:25.457Z,63.69
2019-06-01T20:59:58.781Z,63.93
2019-06-01T21:02:31.894Z,64.06
2019-06-01T21:05:06.724Z,63.94
2019-06-01T21:07:39.943Z,63.85
2019-06-01T21:10:14.087Z,64.21
2019-06-01T21:12:47.448Z,63.98
2019-06-01T21:15:21.347Z,63.57
2019-06-01T21:17:54.637Z,63.86
2019-06-01T21:20:30.055Z,63.75
2019-06-01T21:23:02.957Z,64.01
2019-06-01T21:25:36.076Z,64.46
2019-06-01T21:28:14.027Z,64.57
2019-06-01T21:30:44.213Z,64.75
2019-06-01T21:33:19.736Z,65.04
2019-06-01T21:35:53.057Z,65.39
2019-06-01T21:38:26.189Z,65.37
2019-06-01T21:40:59.360Z,65.74
2019-06-01T21:43:35.381Z,65.54
2019-06-01T21:46:07.279Z,65.74
2019-06-01T21:48:40.404Z,66.01
2019-06-01T21:51:13.530Z,66.73
2019-06-01T21:53:46.553Z,67.04
2019-06-01T21:56:20.780Z,67.50
2019-06-01T21:58:54.474Z,67.85
2019-06-01T22:01:27.666Z,67.93
2019-06-01T22:04:00.762Z,67.80
2019-06-01T22:06:33.955Z,67.94
2019-06-01T22:09:08.270Z,67.63
2019-06-01T22:11:41.472Z,67.54
2019-06-01T22:14:14.586Z,67.34
2019-06-01T22:16:47.780Z,67.44
2019-06-01T22:19:21.606Z,67.37
2019-06-01T22:21:54.743Z,67.27
2019-06-01T22:24:28.332Z,67.45
2019-06-01T22:27:01.494Z,67.61
2019-06-01T22:29:34.654Z,67.48
2019-06-01T22:32:07.774Z,67.95
2019-06-01T22:34:40.915Z,67.95
2019-06-01T22:37:13.985Z,67.70
2019-06-01T22:39:47.172Z,68.00
2019-06-01T22:42:20.313Z,68.41
2019-06-01T22:44:53.501Z,68.29
2019-06-01T22:47:26.742Z,67.98
2019-06-01T22:49:59.948Z,68.09
2019-06-01T22:52:33.086Z,68.25
2019-06-01T22:55:07.497Z,68.55
2019-06-01T22:57:43.117Z,69.04
2019-06-01T23:00:16.790Z,68.97
2019-06-01T23:02:50.093Z,68.83
2019-06-01T23:05:23.307Z,68.77
2019-06-01T23:07:56.640Z,69.05
2019-06-01T23:10:33.967Z,69.78
2019-06-01T23:13:04.717Z,69.58
2019-06-01T23:15:38.116Z,69.55
2019-06-01T23:18:11.562Z,69.72
2019-06-01T23:20:44.722Z,69.99
2019-06-01T23:23:17.904Z,70.25
2019-06-01T23:25:51.271Z,69.96
2019-06-01T23:28:24.398Z,69.57
2019-06-01T23:30:57.431Z,69.52
2019-06-01T23:33:30.992Z,69.38
2019-06-01T23:36:04.199Z,69.47
2019-06-01T23:38:37.257Z,69.52
2019-06-01T23:41:10.438Z,69.55
2019-06-01T23:43:43.619Z,69.48
2019-06-01T23:46:16.742Z,69.32
2019-06-01T23:48:50.066Z,69.40
2019-06-01T23:51:23.482Z,69.44
2019-06-01T23:53:56.681Z,69.74
2019-06-01T23:56:29.834Z,69.80
2019-06-01T23:59:02.940Z,69.88
